Time;durP1;ratioP1;P1;durP2;ratioP2;P2;SDS_P1;SDS_P2;PMS_P1;PMS_P2;Temp;Humidity;BMP_temperature;BMP_pressure;BME280_temperature;BME280_humidity;BME280_pressure;Samples;Min_cycle;Max_cycle;Signal;HPM_P1;HPM_P2
2023/03/08 00:01:43;;;;;;;28.10;13.93;;;;;;;-144.57;100.00;62443.72;5071980;28;20485;-62
2023/03/08 00:04:09;;;;;;;28.67;12.75;;;;;;;-144.57;100.00;62443.72;5073541;28;20044;-62
2023/03/08 00:06:35;;;;;;;22.55;12.60;;;;;;;-144.57;100.00;62443.72;5072728;28;20479;-61
2023/03/08 00:09:01;;;;;;;26.98;13.48;;;;;;;-144.57;100.00;62443.72;5073553;28;20044;-61
2023/03/08 00:11:28;;;;;;;29.10;14.00;;;;;;;-144.57;100.00;62443.72;5071780;28;20045;-61
2023/03/08 00:13:54;;;;;;;27.02;14.13;;;;;;;-144.57;100.00;62443.72;5071654;28;20048;-61
2023/03/08 00:16:20;;;;;;;30.05;13.45;;;;;;;-144.57;100.00;62443.72;5071932;28;20045;-62
2023/03/08 00:18:46;;;;;;;26.40;14.20;;;;;;;-144.57;100.00;62443.72;5071206;28;20044;-60
2023/03/08 00:21:14;;;;;;;28.58;13.20;;;;;;;-144.57;100.00;62443.72;5071465;28;20055;-61
2023/03/08 00:23:40;;;;;;;28.05;13.70;;;;;;;-144.57;100.00;62443.72;5071661;28;20394;-62
2023/03/08 00:26:06;;;;;;;26.83;15.57;;;;;;;-144.57;100.00;62443.72;5071842;28;20041;-61
2023/03/08 00:28:31;;;;;;;37.70;13.95;;;;;;;-144.57;100.00;62443.72;5071633;28;20064;-61
2023/03/08 00:31:03;;;;;;;32.60;14.88;;;;;;;-144.57;100.00;62443.72;5042151;28;20044;-62
2023/03/08 00:33:29;;;;;;;36.20;14.80;;;;;;;-144.57;100.00;62443.72;5072903;28;20509;-61
2023/03/08 00:36:00;;;;;;;30.02;13.43;;;;;;;-144.57;100.00;62443.72;5071433;28;20134;-62
2023/03/08 00:38:26;;;;;;;30.27;14.48;;;;;;;-144.57;100.00;62443.72;5088295;28;20086;-61
2023/03/08 00:40:52;;;;;;;39.83;14.77;;;;;;;-144.57;100.00;62443.72;5072441;28;20056;-62
2023/03/08 00:43:18;;;;;;;37.50;16.08;;;;;;;-144.57;100.00;62443.72;5071358;28;20054;-62
2023/03/08 00:45:44;;;;;;;35.40;14.93;;;;;;;-144.57;100.00;62443.72;5071227;28;20056;-63
2023/03/08 00:48:10;;;;;;;28.27;14.25;;;;;;;-144.57;100.00;62443.72;5071211;28;20040;-62
2023/03/08 00:50:35;;;;;;;32.15;14.85;;;;;;;-144.57;100.00;62443.72;5071095;28;20044;-62
2023/03/08 00:53:01;;;;;;;26.90;14.63;;;;;;;-144.57;100.00;62443.72;5071072;28;20612;-63
2023/03/08 00:55:27;;;;;;;36.95;15.95;;;;;;;-144.57;100.00;62443.72;5071171;28;20048;-64
2023/03/08 00:57:52;;;;;;;31.27;14.77;;;;;;;-144.57;100.00;62443.72;5054325;28;20037;-61
2023/03/08 01:00:18;;;;;;;43.65;18.08;;;;;;;-144.57;100.00;62443.72;5054693;28;20044;-62
2023/03/08 01:02:44;;;;;;;35.53;16.08;;;;;;;-144.57;100.00;62443.72;5070762;28;20417;-61
2023/03/08 01:05:09;;;;;;;29.05;13.63;;;;;;;-144.57;100.00;62443.72;5070654;28;20045;-62
2023/03/08 01:07:36;;;;;;;29.80;14.35;;;;;;;-144.57;100.00;62443.72;5054320;28;20631;-62
2023/03/08 01:10:04;;;;;;;33.15;14.80;;;;;;;-144.57;100.00;62443.72;5072037;28;20076;-61
2023/03/08 01:12:34;;;;;;;30.35;15.13;;;;;;;-144.57;100.00;62443.72;5071067;28;20036;-61
2023/03/08 01:15:00;;;;;;;27.25;13.50;;;;;;;-144.57;100.00;62443.72;5070638;28;20542;-62
2023/03/08 01:17:25;;;;;;;28.60;13.07;;;;;;;-144.57;100.00;62443.72;5053245;28;20130;-63
2023/03/08 01:19:51;;;;;;;31.40;14.77;;;;;;;-144.57;100.00;62443.72;5070674;28;20047;-61
2023/03/08 01:22:17;;;;;;;31.38;13.70;;;;;;;-144.57;100.00;62443.72;5070513;28;20506;-61
2023/03/08 01:24:46;;;;;;;35.20;13.88;;;;;;;-144.57;100.00;62443.72;5070559;28;20040;-61
2023/03/08 01:27:13;;;;;;;28.42;15.02;;;;;;;-144.57;100.00;62443.72;5085455;28;20048;-61
2023/03/08 01:29:39;;;;;;;34.22;13.63;;;;;;;-144.57;100.00;62443.72;5073880;28;20122;-62
2023/03/08 01:32:05;;;;;;;30.83;13.93;;;;;;;-144.57;100.00;62443.72;5090572;28;20575;-63
2023/03/08 01:34:31;;;;;;;29.63;14.18;;;;;;;-144.57;100.00;62443.72;5090736;28;20044;-62
2023/03/08 01:36:56;;;;;;;32.85;15.90;;;;;;;-144.57;100.00;62443.72;5073687;28;20044;-63
2023/03/08 01:39:22;;;;;;;24.38;13.45;;;;;;;-144.57;100.00;62443.72;5092121;28;20044;-60
2023/03/08 01:41:48;;;;;;;27.50;14.40;;;;;;;-144.57;100.00;62443.72;5056774;28;20048;-62
2023/03/08 01:44:15;;;;;;;28.52;13.70;;;;;;;-144.57;100.00;62443.72;5092072;28;20044;-63
2023/03/08 01:46:41;;;;;;;27.15;13.35;;;;;;;-144.57;100.00;62443.72;5090746;28;20420;-62
2023/03/08 01:49:23;;;;;;;28.92;14.20;;;;;;;-144.57;100.00;62443.72;5090642;28;20047;-62
2023/03/08 01:52:09;;;;;;;25.53;13.93;;;;;;;-144.57;100.00;62443.72;5090403;28;20089;-61
2023/03/08 01:54:46;;;;;;;26.92;13.23;;;;;;;-144.57;100.00;62443.72;5090500;28;20309;-63
2023/03/08 01:57:25;;;;;;;29.40;14.55;;;;;;;-144.57;100.00;62443.72;5090421;28;20123;-62
2023/03/08 01:59:52;;;;;;;31.73;15.77;;;;;;;-144.57;100.00;62443.72;5073607;28;20401;-59
2023/03/08 02:02:23;;;;;;;27.77;14.90;;;;;;;-144.57;100.00;62443.72;5090509;28;20039;-62
2023/03/08 02:04:48;;;;;;;26.80;14.70;;;;;;;-144.57;100.00;62443.72;5056798;28;20040;-61
2023/03/08 02:07:14;;;;;;;29.52;15.07;;;;;;;-144.57;100.00;62443.72;5073517;28;20533;-62
2023/03/08 02:09:41;;;;;;;33.10;15.68;;;;;;;-144.57;100.00;62443.72;5090165;28;20032;-61
2023/03/08 02:12:11;;;;;;;28.67;14.05;;;;;;;-144.57;100.00;62443.72;5089828;28;20071;-60
2023/03/08 02:14:40;;;;;;;42.22;16.95;;;;;;;-144.57;100.00;62443.72;5053937;28;20044;-61
2023/03/08 02:17:09;;;;;;;36.65;16.25;;;;;;;-144.57;100.00;62443.72;5073825;28;20052;-61
2023/03/08 02:19:41;;;;;;;33.67;16.50;;;;;;;-144.57;100.00;62443.72;5052733;28;20055;-61
2023/03/08 02:22:13;;;;;;;36.95;16.38;;;;;;;-144.57;100.00;62443.72;5069907;28;20057;-58
2023/03/08 02:24:40;;;;;;;37.80;16.35;;;;;;;-144.57;100.00;62443.72;5036474;28;20043;-60
2023/03/08 02:27:13;;;;;;;38.15;15.55;;;;;;;-144.57;100.00;62443.72;5053731;28;20114;-59
2023/03/08 02:29:41;;;;;;;37.67;16.38;;;;;;;-144.57;100.00;62443.72;5054568;28;20341;-61
2023/03/08 02:32:07;;;;;;;35.10;16.58;;;;;;;-144.57;100.00;62443.72;5073701;28;20529;-60
2023/03/08 02:34:35;;;;;;;29.83;15.23;;;;;;;-144.57;100.00;62443.72;5074743;28;20106;-62
2023/03/08 02:37:03;;;;;;;39.95;16.05;;;;;;;-144.57;100.00;62443.72;5057371;28;20072;-59
2023/03/08 02:39:30;;;;;;;28.88;14.57;;;;;;;-144.57;100.00;62443.72;5024274;28;20413;-61
2023/03/08 02:41:57;;;;;;;34.22;15.27;;;;;;;-144.57;100.00;62443.72;5073629;28;20052;-58
2023/03/08 02:44:23;;;;;;;54.88;15.32;;;;;;;-144.57;100.00;62443.72;5074887;28;20033;-60
2023/03/08 02:46:53;;;;;;;32.83;14.25;;;;;;;-144.57;100.00;62443.72;5057193;28;20068;-61
2023/03/08 02:49:21;;;;;;;27.70;13.43;;;;;;;-144.57;100.00;62443.72;5024095;28;20068;-61
2023/03/08 02:51:49;;;;;;;31.63;14.10;;;;;;;-144.57;100.00;62443.72;5056977;28;20049;-60
2023/03/08 02:54:15;;;;;;;29.00;14.45;;;;;;;-144.57;100.00;62443.72;5057193;28;20041;-63
2023/03/08 02:56:40;;;;;;;27.73;13.48;;;;;;;-144.57;100.00;62443.72;5073338;28;20049;-61
2023/03/08 02:59:07;;;;;;;29.58;13.95;;;;;;;-144.57;100.00;62443.72;5073574;28;20051;-59
2023/03/08 03:01:33;;;;;;;26.17;13.25;;;;;;;-144.57;100.00;62443.72;5073336;28;20426;-60
2023/03/08 03:03:59;;;;;;;32.42;12.65;;;;;;;-144.57;100.00;62443.72;5056426;28;20657;-60
2023/03/08 03:06:25;;;;;;;30.85;14.68;;;;;;;-144.57;100.00;62443.72;5057517;28;20147;-59
2023/03/08 03:08:55;;;;;;;30.77;13.15;;;;;;;-144.57;100.00;62443.72;5075479;28;20264;-61
2023/03/08 03:11:22;;;;;;;29.33;13.13;;;;;;;-144.57;100.00;62443.72;5091215;28;20046;-60
2023/03/08 03:13:57;;;;;;;42.95;13.77;;;;;;;-144.57;100.00;62443.72;5090974;28;20048;-61
2023/03/08 03:16:26;;;;;;;59.83;14.73;;;;;;;-144.57;100.00;62443.72;5058052;28;20040;-62
2023/03/08 03:18:53;;;;;;;136.05;19.27;;;;;;;-144.57;100.00;62443.72;5091054;28;20123;-62
2023/03/08 03:21:19;;;;;;;47.65;15.38;;;;;;;-144.57;100.00;62443.72;5093289;28;20043;-62
2023/03/08 03:23:45;;;;;;;87.20;17.10;;;;;;;-144.57;100.00;62443.72;5092084;28;20044;-61
2023/03/08 03:26:18;;;;;;;29.40;13.32;;;;;;;-144.57;100.00;62443.72;5076749;28;20498;-61
2023/03/08 03:28:48;;;;;;;47.17;16.40;;;;;;;-144.57;100.00;62443.72;5072778;28;20517;-60
2023/03/08 03:31:19;;;;;;;36.00;16.10;;;;;;;-144.57;100.00;62443.72;5072840;28;20711;-62
2023/03/08 03:33:46;;;;;;;34.47;14.20;;;;;;;-144.57;100.00;62443.72;5039513;28;20051;-62
2023/03/08 03:36:14;;;;;;;31.65;14.32;;;;;;;-144.57;100.00;62443.72;5055985;28;20036;-63
2023/03/08 03:38:40;;;;;;;34.50;14.25;;;;;;;-144.57;100.00;62443.72;5074179;28;20051;-63
2023/03/08 03:41:08;;;;;;;30.25;13.73;;;;;;;-144.57;100.00;62443.72;5071459;28;20044;-62
2023/03/08 03:43:35;;;;;;;32.25;14.93;;;;;;;-144.57;100.00;62443.72;5090655;28;20135;-61
2023/03/08 03:46:02;;;;;;;36.22;15.00;;;;;;;-144.57;100.00;62443.72;5076046;28;20138;-63
2023/03/08 03:48:29;;;;;;;35.38;15.82;;;;;;;-144.57;100.00;62443.72;5092711;28;20040;-60
2023/03/08 03:51:00;;;;;;;40.22;14.95;;;;;;;-144.57;100.00;62443.72;5092529;28;20052;-63
2023/03/08 03:53:28;;;;;;;35.35;14.68;;;;;;;-144.57;100.00;62443.72;5093989;28;20150;-61
2023/03/08 03:55:54;;;;;;;34.75;15.05;;;;;;;-144.57;100.00;62443.72;5093730;28;20044;-60
2023/03/08 03:58:21;;;;;;;42.65;17.23;;;;;;;-144.57;100.00;62443.72;5092600;28;20524;-59
2023/03/08 04:00:48;;;;;;;41.25;17.55;;;;;;;-144.57;100.00;62443.72;5075505;28;20426;-60
2023/03/08 04:03:22;;;;;;;40.20;15.60;;;;;;;-144.57;100.00;62443.72;5059915;28;20047;-61
2023/03/08 04:05:49;;;;;;;31.92;14.75;;;;;;;-144.57;100.00;62443.72;5058593;28;20150;-64
2023/03/08 04:08:15;;;;;;;32.63;15.32;;;;;;;-144.57;100.00;62443.72;5092503;28;20132;-60
2023/03/08 04:10:42;;;;;;;45.70;17.48;;;;;;;-144.57;100.00;62443.72;5075323;28;20524;-61
2023/03/08 04:13:10;;;;;;;47.95;17.67;;;;;;;-144.57;100.00;62443.72;5075231;28;20036;-62
2023/03/08 04:15:36;;;;;;;48.30;18.50;;;;;;;-144.57;100.00;62443.72;5074839;28;20135;-63
2023/03/08 04:18:06;;;;;;;58.20;21.83;;;;;;;-144.57;100.00;62443.72;5092207;28;20040;-61
2023/03/08 04:20:33;;;;;;;54.35;21.50;;;;;;;-144.57;100.00;62443.72;5091919;28;20559;-60
2023/03/08 04:23:00;;;;;;;54.28;20.92;;;;;;;-144.57;100.00;62443.72;5091880;28;20040;-61
2023/03/08 04:25:35;;;;;;;56.47;19.92;;;;;;;-144.57;100.00;62443.72;5076194;28;20052;-61
2023/03/08 04:28:03;;;;;;;48.95;19.38;;;;;;;-144.57;100.00;62443.72;5074754;28;20036;-62
2023/03/08 04:30:30;;;;;;;47.22;18.90;;;;;;;-144.57;100.00;62443.72;5091755;28;20505;-62
2023/03/08 04:32:58;;;;;;;48.55;18.42;;;;;;;-144.57;100.00;62443.72;5074711;28;20067;-62
2023/03/08 04:35:30;;;;;;;39.63;16.25;;;;;;;-144.57;100.00;62443.72;5091516;28;20048;-60
2023/03/08 04:37:56;;;;;;;49.28;17.20;;;;;;;-144.57;100.00;62443.72;5074896;28;20413;-63
2023/03/08 04:40:24;;;;;;;38.67;15.75;;;;;;;-144.57;100.00;62443.72;5091411;28;20044;-60
2023/03/08 04:42:55;;;;;;;39.42;16.98;;;;;;;-144.57;100.00;62443.72;5042726;28;20043;-62
2023/03/08 04:45:26;;;;;;;39.10;15.23;;;;;;;-144.57;100.00;62443.72;5091221;28;20120;-61
2023/03/08 04:47:55;;;;;;;34.95;14.65;;;;;;;-144.57;100.00;62443.72;5091365;28;20055;-61
2023/03/08 04:50:21;;;;;;;31.88;12.75;;;;;;;-144.57;100.00;62443.72;5091600;28;20058;-62
2023/03/08 04:52:47;;;;;;;36.33;14.43;;;;;;;-144.57;100.00;62443.72;5070818;28;20061;-61
2023/03/08 04:55:13;;;;;;;28.45;12.00;;;;;;;-144.57;100.00;62443.72;5093101;28;20417;-59
2023/03/08 04:57:39;;;;;;;48.13;13.38;;;;;;;-144.57;100.00;62443.72;5111491;28;20039;-61
2023/03/08 05:00:07;;;;;;;45.42;14.93;;;;;;;-144.57;100.00;62443.72;5095114;28;20047;-59
2023/03/08 05:02:37;;;;;;;34.22;13.65;;;;;;;-144.57;100.00;62443.72;5094410;28;20035;-61
2023/03/08 05:05:05;;;;;;;35.78;12.98;;;;;;;-144.57;100.00;62443.72;5112556;28;20150;-62
2023/03/08 05:07:32;;;;;;;28.98;13.27;;;;;;;-144.57;100.00;62443.72;5094151;28;20090;-61
2023/03/08 05:10:00;;;;;;;38.55;12.98;;;;;;;-144.57;100.00;62443.72;5094614;28;20050;-59
2023/03/08 05:12:25;;;;;;;33.03;13.52;;;;;;;-144.57;100.00;62443.72;5109300;28;20107;-61
2023/03/08 05:14:55;;;;;;;32.30;12.23;;;;;;;-144.57;100.00;62443.72;5090926;28;20095;-61
2023/03/08 05:17:23;;;;;;;30.92;13.75;;;;;;;-144.57;100.00;62443.72;5074442;28;20047;-62
2023/03/08 05:19:49;;;;;;;37.47;12.88;;;;;;;-144.57;100.00;62443.72;5091922;28;20040;-61
2023/03/08 05:22:19;;;;;;;28.42;12.15;;;;;;;-144.57;100.00;62443.72;5074058;28;20540;-61
2023/03/08 05:24:49;;;;;;;35.10;12.68;;;;;;;-144.57;100.00;62443.72;5090675;28;20405;-61
2023/03/08 05:27:16;;;;;;;33.33;13.38;;;;;;;-144.57;100.00;62443.72;5073868;28;20397;-60
2023/03/08 05:29:42;;;;;;;45.80;14.13;;;;;;;-144.57;100.00;62443.72;5090819;28;20039;-60
2023/03/08 05:32:12;;;;;;;38.63;14.70;;;;;;;-144.57;100.00;62443.72;5090721;28;20048;-60
2023/03/08 05:34:38;;;;;;;36.35;13.82;;;;;;;-144.57;100.00;62443.72;5057520;28;20549;-61
2023/03/08 05:37:07;;;;;;;39.33;14.65;;;;;;;-144.57;100.00;62443.72;5073323;28;20056;-61
2023/03/08 05:39:35;;;;;;;45.67;14.13;;;;;;;-144.57;100.00;62443.72;5090594;28;20076;-63
2023/03/08 05:42:10;;;;;;;32.20;12.98;;;;;;;-144.57;100.00;62443.72;5059343;28;20044;-61
2023/03/08 05:44:39;;;;;;;38.22;13.48;;;;;;;-144.57;100.00;62443.72;5057918;28;20527;-61
2023/03/08 05:47:07;;;;;;;39.90;14.48;;;;;;;-144.57;100.00;62443.72;5073768;28;20052;-62
2023/03/08 05:49:32;;;;;;;36.70;15.07;;;;;;;-144.57;100.00;62443.72;5090169;28;20051;-61
2023/03/08 05:51:58;;;;;;;43.30;15.18;;;;;;;-144.57;100.00;62443.72;5073678;28;20040;-60
2023/03/08 05:54:26;;;;;;;34.60;14.88;;;;;;;-144.57;100.00;62443.72;5091912;28;20036;-61
2023/03/08 05:56:55;;;;;;;36.20;14.38;;;;;;;-144.57;100.00;62443.72;5090291;28;20063;-61
2023/03/08 05:59:25;;;;;;;37.15;14.60;;;;;;;-144.57;100.00;62443.72;5073395;28;20431;-62
2023/03/08 06:01:52;;;;;;;38.00;14.52;;;;;;;-144.57;100.00;62443.72;5073335;28;20093;-61
2023/03/08 06:04:44;;;;;;;37.72;14.82;;;;;;;-144.57;100.00;62443.72;5089723;28;20404;-61
2023/03/08 06:07:11;;;;;;;37.15;13.95;;;;;;;-144.57;100.00;62443.72;5073544;28;20528;-61
2023/03/08 06:09:41;;;;;;;36.78;14.85;;;;;;;-144.57;100.00;62443.72;5057427;28;20032;-61
2023/03/08 06:12:12;;;;;;;36.38;15.10;;;;;;;-144.57;100.00;62443.72;5090325;28;20048;-62
2023/03/08 06:14:38;;;;;;;33.08;14.57;;;;;;;-144.57;100.00;62443.72;5090141;28;20385;-61
2023/03/08 06:17:04;;;;;;;36.53;15.82;;;;;;;-144.57;100.00;62443.72;5073656;28;20071;-61
2023/03/08 06:19:32;;;;;;;35.38;15.75;;;;;;;-144.57;100.00;62443.72;5073558;28;20055;-63
2023/03/08 06:21:58;;;;;;;42.80;15.68;;;;;;;-144.57;100.00;62443.72;5090143;28;20425;-63
2023/03/08 06:24:24;;;;;;;39.17;15.57;;;;;;;-144.57;100.00;62443.72;5089905;28;20052;-64
2023/03/08 06:26:52;;;;;;;42.08;17.50;;;;;;;-144.57;100.00;62443.72;5073184;28;20436;-63
2023/03/08 06:29:18;;;;;;;39.90;16.15;;;;;;;-144.57;100.00;62443.72;5090098;28;20398;-62
2023/03/08 06:31:43;;;;;;;41.13;17.27;;;;;;;-144.57;100.00;62443.72;5091277;28;20129;-60
2023/03/08 06:34:11;;;;;;;38.83;15.85;;;;;;;-144.57;100.00;62443.72;5073388;28;20077;-60
2023/03/08 06:36:37;;;;;;;37.95;16.65;;;;;;;-144.57;100.00;62443.72;5072821;28;20040;-62
2023/03/08 06:39:05;;;;;;;42.80;17.35;;;;;;;-144.57;100.00;62443.72;5089816;28;20055;-62
2023/03/08 06:41:31;;;;;;;42.55;16.98;;;;;;;-144.57;100.00;62443.72;5089787;28;20072;-63
2023/03/08 06:44:04;;;;;;;38.17;16.90;;;;;;;-144.57;100.00;62443.72;5089724;28;20079;-64
2023/03/08 06:46:41;;;;;;;34.85;15.05;;;;;;;-144.57;100.00;62443.72;5042731;28;20054;-62
2023/03/08 06:49:08;;;;;;;43.58;17.85;;;;;;;-144.57;100.00;62443.72;5073222;28;20039;-62
2023/03/08 06:51:35;;;;;;;36.60;16.80;;;;;;;-144.57;100.00;62443.72;5073096;28;20246;-63
2023/03/08 06:54:01;;;;;;;40.85;17.38;;;;;;;-144.57;100.00;62443.72;5089581;28;20047;-61
2023/03/08 06:56:27;;;;;;;40.85;16.85;;;;;;;-144.57;100.00;62443.72;5089278;28;20131;-62
2023/03/08 06:58:53;;;;;;;47.22;18.00;;;;;;;-144.57;100.00;62443.72;5089652;28;20549;-62
2023/03/08 07:01:18;;;;;;;39.50;16.48;;;;;;;-144.57;100.00;62443.72;5089407;28;20528;-62
2023/03/08 07:03:45;;;;;;;41.15;16.83;;;;;;;-144.57;100.00;62443.72;5090656;28;20046;-60
2023/03/08 07:06:11;;;;;;;33.78;14.95;;;;;;;-144.57;100.00;62443.72;5088985;28;20138;-63
2023/03/08 07:08:40;;;;;;;35.33;16.45;;;;;;;-144.57;100.00;62443.72;5088451;28;20043;-63
2023/03/08 07:11:08;;;;;;;42.38;17.55;;;;;;;-144.57;100.00;62443.72;5066162;28;20039;-62
2023/03/08 07:13:35;;;;;;;36.05;16.17;;;;;;;-144.57;100.00;62443.72;5095540;28;20501;-63
2023/03/08 07:16:11;;;;;;;37.90;17.75;;;;;;;-144.57;100.00;62443.72;5089571;28;20048;-62
2023/03/08 07:18:37;;;;;;;30.73;15.55;;;;;;;-144.57;100.00;62443.72;5092006;28;20366;-62
2023/03/08 07:21:03;;;;;;;24.48;13.85;;;;;;;-144.57;100.00;62443.72;5076121;28;20081;-62
2023/03/08 07:23:29;;;;;;;30.67;14.57;;;;;;;-144.57;100.00;62443.72;5092957;28;20048;-62
2023/03/08 07:25:54;;;;;;;23.30;12.25;;;;;;;-144.57;100.00;62443.72;5092889;28;20117;-65
2023/03/08 07:28:21;;;;;;;22.00;12.75;;;;;;;-144.57;100.00;62443.72;5076910;28;20048;-61
2023/03/08 07:30:48;;;;;;;24.65;13.15;;;;;;;-144.57;100.00;62443.72;5093191;28;20043;-64
2023/03/08 07:33:14;;;;;;;19.88;12.23;;;;;;;-144.57;100.00;62443.72;5076845;28;20109;-60
2023/03/08 07:35:40;;;;;;;21.27;12.13;;;;;;;-144.57;100.00;62443.72;5113182;28;20055;-63
2023/03/08 07:38:06;;;;;;;19.35;10.95;;;;;;;-144.57;100.00;62443.72;5113227;28;20035;-62
2023/03/08 07:40:32;;;;;;;23.58;12.15;;;;;;;-144.57;100.00;62443.72;5088628;28;20055;-62
2023/03/08 07:42:58;;;;;;;18.45;11.52;;;;;;;-144.57;100.00;62443.72;5099899;28;20040;-63
2023/03/08 07:46:03;;;;;;;16.80;9.85;;;;;;;-144.57;100.00;62443.72;5071293;28;20052;-63
2023/03/08 07:48:29;;;;;;;16.23;10.30;;;;;;;-144.57;100.00;62443.72;5070793;28;20183;-62
2023/03/08 07:51:06;;;;;;;17.83;9.80;;;;;;;-144.57;100.00;62443.72;5081742;28;20402;-63
2023/03/08 07:53:32;;;;;;;17.60;9.50;;;;;;;-144.57;100.00;62443.72;5092134;28;20043;-64
2023/03/08 07:55:59;;;;;;;16.52;9.82;;;;;;;-144.57;100.00;62443.72;5092707;28;20173;-64
2023/03/08 07:58:26;;;;;;;16.70;9.70;;;;;;;-144.57;100.00;62443.72;5075450;28;20123;-64
2023/03/08 08:00:51;;;;;;;15.90;9.57;;;;;;;-144.57;100.00;62443.72;5092451;28;20047;-61
2023/03/08 08:03:17;;;;;;;18.13;9.40;;;;;;;-144.57;100.00;62443.72;5075457;28;20047;-62
2023/03/08 08:05:43;;;;;;;14.65;8.65;;;;;;;-144.57;100.00;62443.72;5058583;28;20040;-62
2023/03/08 08:08:12;;;;;;;14.48;9.05;;;;;;;-144.57;100.00;62443.72;5075257;28;20042;-62
2023/03/08 08:10:42;;;;;;;14.90;8.98;;;;;;;-144.57;100.00;62443.72;5092326;28;20468;-63
2023/03/08 08:13:08;;;;;;;15.13;9.27;;;;;;;-144.57;100.00;62443.72;5093354;28;20036;-62
2023/03/08 08:15:34;;;;;;;15.30;8.73;;;;;;;-144.57;100.00;62443.72;5093439;28;20050;-65
2023/03/08 08:18:00;;;;;;;16.15;8.70;;;;;;;-144.57;100.00;62443.72;5091853;28;20390;-62
2023/03/08 08:20:26;;;;;;;13.82;9.07;;;;;;;-144.57;100.00;62443.72;5091985;28;20051;-63
2023/03/08 08:22:52;;;;;;;14.88;8.57;;;;;;;-144.57;100.00;62443.72;5093180;28;20040;-62
2023/03/08 08:25:19;;;;;;;12.98;8.10;;;;;;;-144.57;100.00;62443.72;5091804;28;20061;-64
2023/03/08 08:27:44;;;;;;;14.65;9.07;;;;;;;-144.57;100.00;62443.72;5092269;28;20085;-61
2023/03/08 08:30:12;;;;;;;11.25;7.50;;;;;;;-144.57;100.00;62443.72;5091893;28;20040;-63
2023/03/08 08:32:38;;;;;;;14.57;8.00;;;;;;;-144.57;100.00;62443.72;5092873;28;20075;-61
2023/03/08 08:35:04;;;;;;;9.50;6.25;;;;;;;-144.57;100.00;62443.72;5093075;28;20079;-62
2023/03/08 08:37:31;;;;;;;12.38;7.38;;;;;;;-144.57;100.00;62443.72;5092792;28;20043;-61
2023/03/08 08:39:57;;;;;;;15.25;7.78;;;;;;;-144.57;100.00;62443.72;5090532;28;20036;-62
2023/03/08 08:42:23;;;;;;;10.15;7.00;;;;;;;-144.57;100.00;62443.72;5088797;28;20572;-62
2023/03/08 08:44:48;;;;;;;12.20;7.13;;;;;;;-144.57;100.00;62443.72;5090076;28;20040;-60
2023/03/08 08:47:14;;;;;;;12.75;7.50;;;;;;;-144.57;100.00;62443.72;5091371;28;20089;-61
2023/03/08 08:49:40;;;;;;;12.13;7.45;;;;;;;-144.57;100.00;62443.72;5092891;28;20042;-62
2023/03/08 08:52:06;;;;;;;12.27;8.10;;;;;;;-144.57;100.00;62443.72;5074666;28;20139;-64
2023/03/08 08:54:33;;;;;;;13.32;8.45;;;;;;;-144.57;100.00;62443.72;5092970;28;20039;-61
2023/03/08 08:56:59;;;;;;;13.90;7.93;;;;;;;-144.57;100.00;62443.72;5092346;28;20048;-62
2023/03/08 08:59:24;;;;;;;11.00;7.97;;;;;;;-144.57;100.00;62443.72;5092251;28;20032;-62
2023/03/08 09:01:50;;;;;;;13.60;7.10;;;;;;;-144.57;100.00;62443.72;5091033;28;20378;-62
2023/03/08 09:04:16;;;;;;;12.90;8.15;;;;;;;-144.57;100.00;62443.72;5091377;28;20051;-61
2023/03/08 09:06:42;;;;;;;11.75;7.97;;;;;;;-144.57;100.00;62443.72;5090865;28;20537;-61
2023/03/08 09:09:07;;;;;;;13.52;8.18;;;;;;;-144.57;100.00;62443.72;5091351;28;20489;-61
2023/03/08 09:11:33;;;;;;;15.23;8.90;;;;;;;-144.57;100.00;62443.72;5092333;28;20054;-62
2023/03/08 09:14:01;;;;;;;12.73;8.18;;;;;;;-144.57;100.00;62443.72;5092367;28;20072;-62
2023/03/08 09:16:29;;;;;;;13.15;7.88;;;;;;;-144.57;100.00;62443.72;5091067;28;20528;-61
2023/03/08 09:18:56;;;;;;;11.20;8.10;;;;;;;-144.57;100.00;62443.72;5091102;28;20044;-62
2023/03/08 09:21:22;;;;;;;12.32;8.45;;;;;;;-144.57;100.00;62443.72;5074008;28;20047;-62
2023/03/08 09:23:48;;;;;;;16.73;8.90;;;;;;;-144.57;100.00;62443.72;5057116;28;20135;-62
2023/03/08 09:26:14;;;;;;;15.27;8.60;;;;;;;-144.57;100.00;62443.72;5091869;28;20644;-60
2023/03/08 09:28:39;;;;;;;14.32;7.75;;;;;;;-144.57;100.00;62443.72;5091983;28;20496;-60
2023/03/08 09:31:13;;;;;;;16.40;8.15;;;;;;;-144.57;100.00;62443.72;5092061;28;20044;-64
2023/03/08 09:33:41;;;;;;;12.43;7.22;;;;;;;-144.57;100.00;62443.72;5073834;28;20042;-62
2023/03/08 09:36:07;;;;;;;11.88;7.97;;;;;;;-144.57;100.00;62443.72;5090711;28;20409;-61
2023/03/08 09:38:33;;;;;;;17.00;7.95;;;;;;;-144.57;100.00;62443.72;5091045;28;20048;-62
2023/03/08 09:41:17;;;;;;;11.90;7.85;;;;;;;-144.57;100.00;62443.72;5092032;28;20048;-63
2023/03/08 09:43:49;;;;;;;13.90;7.53;;;;;;;-144.57;100.00;62443.72;5091937;28;20047;-60
2023/03/08 09:46:21;;;;;;;12.63;7.50;;;;;;;-144.57;100.00;62443.72;5091639;28;20125;-62
2023/03/08 09:48:48;;;;;;;15.82;7.80;;;;;;;-144.57;100.00;62443.72;5090368;28;20032;-63
2023/03/08 09:51:15;;;;;;;13.30;8.27;;;;;;;-144.57;100.00;62443.72;5090280;28;20549;-63
2023/03/08 09:53:46;;;;;;;13.75;7.28;;;;;;;-144.57;100.00;62443.72;5090332;28;20126;-62
2023/03/08 09:56:30;;;;;;;10.88;7.32;;;;;;;-144.57;100.00;62443.72;5091892;28;20046;-61
2023/03/08 09:59:04;;;;;;;13.00;8.07;;;;;;;-144.57;100.00;62443.72;5090513;28;20044;-63
2023/03/08 10:01:57;;;;;;;17.25;8.23;;;;;;;-144.57;100.00;62443.72;5091724;28;20044;-62
2023/03/08 10:04:34;;;;;;;15.07;8.45;;;;;;;-144.57;100.00;62443.72;5073384;28;20044;-63
2023/03/08 10:07:05;;;;;;;11.88;7.35;;;;;;;-144.57;100.00;62443.72;5091348;28;20090;-62
2023/03/08 10:09:40;;;;;;;11.52;7.25;;;;;;;-144.57;100.00;62443.72;5091265;28;20454;-61
2023/03/08 10:12:14;;;;;;;17.45;8.52;;;;;;;-144.57;100.00;62443.72;5056825;28;20047;-62
2023/03/08 10:14:49;;;;;;;12.18;7.47;;;;;;;-144.57;100.00;62443.72;5091648;28;20044;-60
2023/03/08 10:17:19;;;;;;;13.55;8.45;;;;;;;-144.57;100.00;62443.72;5073513;28;20138;-61
2023/03/08 10:19:56;;;;;;;15.48;8.52;;;;;;;-144.57;100.00;62443.72;5091593;28;20048;-62
2023/03/08 10:22:33;;;;;;;13.50;8.98;;;;;;;-144.57;100.00;62443.72;5073141;28;20051;-63
2023/03/08 10:25:01;;;;;;;13.77;8.52;;;;;;;-144.57;100.00;62443.72;5091043;28;20056;-62
2023/03/08 10:27:33;;;;;;;16.20;9.48;;;;;;;-144.57;100.00;62443.72;5057000;28;20048;-61
2023/03/08 10:30:01;;;;;;;16.15;9.15;;;;;;;-144.57;100.00;62443.72;5091327;28;20402;-63
2023/03/08 10:32:28;;;;;;;17.27;8.80;;;;;;;-144.57;100.00;62443.72;5073275;28;20040;-61
2023/03/08 10:35:02;;;;;;;17.02;9.38;;;;;;;-144.57;100.00;62443.72;5089635;28;20040;-62
2023/03/08 10:37:32;;;;;;;18.05;10.32;;;;;;;-144.57;100.00;62443.72;5091062;28;20044;-62
2023/03/08 10:40:04;;;;;;;14.98;9.05;;;;;;;-144.57;100.00;62443.72;5089561;28;20036;-61
2023/03/08 10:42:30;;;;;;;16.08;9.25;;;;;;;-144.57;100.00;62443.72;5088715;28;20122;-62
2023/03/08 10:44:59;;;;;;;16.48;9.75;;;;;;;-144.57;100.00;62443.72;5089684;28;20036;-62
2023/03/08 10:47:31;;;;;;;15.32;9.38;;;;;;;-144.57;100.00;62443.72;5089690;28;20106;-63
2023/03/08 10:50:15;;;;;;;15.80;10.23;;;;;;;-144.57;100.00;62443.72;5092168;28;20051;-63
2023/03/08 10:52:41;;;;;;;18.20;11.13;;;;;;;-144.57;100.00;62443.72;5093855;28;20138;-63
2023/03/08 10:55:16;;;;;;;15.00;9.57;;;;;;;-144.57;100.00;62443.72;5093343;28;20044;-63
2023/03/08 10:57:59;;;;;;;16.83;10.50;;;;;;;-144.57;100.00;62443.72;5094499;28;20040;-63
2023/03/08 11:00:34;;;;;;;16.40;9.88;;;;;;;-144.57;100.00;62443.72;5094735;28;20059;-62
2023/03/08 11:03:20;;;;;;;17.13;10.05;;;;;;;-144.57;100.00;62443.72;5093423;28;20036;-63